createdAt,value
2023-02-05T00:01:58.114Z,1.28
2023-02-05T00:04:25.350Z,1.24
2023-02-05T00:06:52.494Z,1.26
2023-02-05T00:09:19.763Z,1.32
2023-02-05T00:11:46.938Z,1.28
2023-02-05T00:14:14.166Z,1.41
2023-02-05T00:16:41.490Z,1.34
2023-02-05T00:19:09.040Z,1.35
2023-02-05T00:21:36.608Z,1.31
2023-02-05T00:24:04.213Z,1.35
2023-02-05T00:26:31.847Z,1.29
2023-02-05T00:28:59.210Z,1.27
2023-02-05T00:31:26.561Z,1.31
2023-02-05T00:33:54.382Z,1.34
2023-02-05T00:36:23.887Z,1.37
2023-02-05T00:38:54.725Z,1.42
2023-02-05T00:41:22.086Z,1.43
2023-02-05T00:43:49.526Z,1.20
2023-02-05T00:46:17.798Z,1.29
2023-02-05T00:48:45.179Z,1.24
2023-02-05T00:51:12.402Z,1.25
2023-02-05T00:53:39.784Z,1.24
2023-02-05T00:56:07.280Z,1.30
2023-02-05T00:58:34.988Z,1.27
2023-02-05T01:01:02.247Z,1.35
2023-02-05T01:03:30.962Z,1.19
2023-02-05T01:05:58.305Z,1.16
2023-02-05T01:08:25.585Z,1.23
2023-02-05T01:10:52.746Z,1.25
2023-02-05T01:13:20.192Z,1.21
2023-02-05T01:15:47.504Z,1.19
2023-02-05T01:18:15.156Z,1.19
2023-02-05T01:20:43.762Z,1.16
2023-02-05T01:23:12.143Z,1.13
2023-02-05T01:25:40.050Z,1.13
2023-02-05T01:28:07.476Z,1.11
2023-02-05T01:30:36.058Z,1.08
2023-02-05T01:33:04.554Z,1.07
2023-02-05T01:35:32.760Z,1.08
2023-02-05T01:38:00.151Z,1.04
2023-02-05T01:40:27.395Z,1.08
2023-02-05T01:42:54.736Z,1.10
2023-02-05T01:45:24.904Z,1.03
2023-02-05T01:48:01.663Z,1.02
2023-02-05T01:50:39.712Z,0.97
2023-02-05T01:53:14.022Z,0.95
2023-02-05T01:55:54.080Z,0.93
2023-02-05T01:58:22.913Z,0.86
2023-02-05T02:00:50.320Z,0.80
2023-02-05T02:03:18.106Z,0.61
2023-02-05T02:05:45.365Z,0.64
2023-02-05T02:08:13.677Z,0.63
2023-02-05T02:10:46.118Z,0.57
2023-02-05T02:13:14.776Z,0.46
2023-02-05T02:15:42.406Z,0.47
2023-02-05T02:18:11.001Z,0.38
2023-02-05T02:20:41.896Z,0.31
2023-02-05T02:23:38.378Z,0.21
2023-02-05T02:26:27.033Z,0.09
2023-02-05T02:29:03.829Z,0.24
2023-02-05T02:31:37.070Z,0.25
2023-02-05T02:34:18.374Z,0.13
2023-02-05T02:37:02.049Z,0.12
2023-02-05T02:39:44.590Z,0.22
2023-02-05T02:42:27.065Z,0.26
2023-02-05T02:45:00.626Z,0.26
2023-02-05T02:47:46.787Z,0.40
2023-02-05T02:50:26.459Z,0.28
2023-02-05T02:52:56.007Z,0.33
2023-02-05T02:55:25.147Z,0.27
2023-02-05T02:57:56.452Z,0.29
2023-02-05T03:00:27.896Z,0.32
2023-02-05T03:03:02.718Z,0.39
2023-02-05T03:05:31.859Z,0.43
2023-02-05T03:08:10.735Z,0.48
2023-02-05T03:11:12.056Z,0.42
2023-02-05T03:13:39.754Z,0.49
2023-02-05T03:16:08.163Z,0.58
2023-02-05T03:18:36.678Z,0.55
2023-02-05T03:21:13.644Z,0.53
2023-02-05T03:23:41.280Z,0.59
2023-02-05T03:26:28.571Z,0.58
2023-02-05T03:29:00.584Z,0.45
2023-02-05T03:31:58.119Z,0.40
2023-02-05T03:34:45.854Z,0.22
2023-02-05T03:37:46.068Z,-0.02
2023-02-05T03:40:52.953Z,-0.05
2023-02-05T03:43:31.685Z,-0.17
2023-02-05T03:46:31.315Z,-0.27
2023-02-05T03:49:35.527Z,-0.26
2023-02-05T03:52:09.910Z,-0.30
2023-02-05T03:55:02.745Z,-0.30
2023-02-05T03:57:59.250Z,-0.32
2023-02-05T04:00:27.693Z,-0.51
2023-02-05T04:02:55.366Z,-0.61
2023-02-05T04:05:22.644Z,-0.58
2023-02-05T04:07:52.065Z,-0.57
2023-02-05T04:10:20.136Z,-0.57
2023-02-05T04:12:47.665Z,-0.66
2023-02-05T04:15:15.028Z,-0.71
2023-02-05T04:17:42.281Z,-0.72
2023-02-05T04:20:10.334Z,-0.72
2023-02-05T04:22:37.823Z,-0.75
2023-02-05T04:25:05.480Z,-0.78
2023-02-05T04:27:33.519Z,-0.85
2023-02-05T04:30:00.723Z,-0.93
2023-02-05T04:32:28.353Z,-1.02
2023-02-05T04:34:55.746Z,-1.03
2023-02-05T04:37:22.998Z,-1.07
2023-02-05T04:39:50.269Z,-1.20
2023-02-05T04:42:17.647Z,-1.12
2023-02-05T04:44:45.052Z,-1.19
2023-02-05T04:47:12.236Z,-1.19
2023-02-05T04:49:39.563Z,-1.28
2023-02-05T04:52:07.951Z,-1.23
2023-02-05T04:54:37.108Z,-1.28
2023-02-05T04:57:04.710Z,-1.27
2023-02-05T04:59:32.002Z,-1.32
2023-02-05T05:02:00.278Z,-1.38
2023-02-05T05:04:27.591Z,-1.35
2023-02-05T05:06:54.890Z,-1.39
2023-02-05T05:09:22.185Z,-1.48
2023-02-05T05:11:50.025Z,-1.57
2023-02-05T05:14:17.332Z,-1.77
2023-02-05T05:16:44.695Z,-1.69
2023-02-05T05:19:12.234Z,-1.67
2023-02-05T05:21:39.494Z,-1.69
2023-02-05T05:24:07.094Z,-1.63
2023-02-05T05:26:34.571Z,-1.64
2023-02-05T05:29:02.111Z,-1.81
2023-02-05T05:31:29.393Z,-1.78
2023-02-05T05:33:56.607Z,-1.78
2023-02-05T05:36:23.977Z,-1.85
2023-02-05T05:38:51.235Z,-1.90
2023-02-05T05:41:24.046Z,-1.91
2023-02-05T05:43:54.559Z,-1.85
2023-02-05T05:46:26.515Z,-1.83
2023-02-05T05:49:01.725Z,-1.85
2023-02-05T05:51:30.657Z,-1.83
2023-02-05T05:53:57.951Z,-1.89
2023-02-05T05:56:25.486Z,-1.96
2023-02-05T05:58:53.069Z,-2.00
2023-02-05T06:01:21.284Z,-2.06
2023-02-05T06:03:48.827Z,-2.06
2023-02-05T06:06:16.097Z,-1.98
2023-02-05T06:08:43.424Z,-2.00
2023-02-05T06:11:11.197Z,-2.13
2023-02-05T06:13:38.842Z,-2.15
2023-02-05T06:16:06.558Z,-2.16
2023-02-05T06:18:34.057Z,-2.17
2023-02-05T06:21:01.296Z,-2.27
2023-02-05T06:23:28.628Z,-2.26
2023-02-05T06:25:55.854Z,-2.30
2023-02-05T06:28:23.143Z,-2.25
2023-02-05T06:30:50.507Z,-2.21
2023-02-05T06:33:17.810Z,-2.23
2023-02-05T06:35:44.963Z,-2.28
2023-02-05T06:38:12.100Z,-2.29
2023-02-05T06:40:39.598Z,-2.27
2023-02-05T06:43:07.010Z,-2.28
2023-02-05T06:45:34.369Z,-2.27
2023-02-05T06:48:01.846Z,-2.24
2023-02-05T06:50:29.248Z,-2.36
2023-02-05T06:52:56.574Z,-2.36
2023-02-05T06:55:23.829Z,-2.38
2023-02-05T06:57:50.941Z,-2.39
2023-02-05T07:00:18.438Z,-2.40
2023-02-05T07:02:45.785Z,-2.44
2023-02-05T07:05:12.985Z,-2.46
2023-02-05T07:07:40.250Z,-2.48
2023-02-05T07:10:08.054Z,-2.45
2023-02-05T07:12:35.300Z,-2.46
2023-02-05T07:15:02.525Z,-2.42
2023-02-05T07:17:29.953Z,-2.47
2023-02-05T07:19:57.188Z,-2.46
2023-02-05T07:22:24.929Z,-2.47
2023-02-05T07:24:52.227Z,-2.49
2023-02-05T07:27:19.793Z,-2.52
2023-02-05T07:29:47.427Z,-2.52
2023-02-05T07:32:14.632Z,-2.45
2023-02-05T07:34:42.113Z,-2.35
2023-02-05T07:37:12.554Z,-2.32
2023-02-05T07:39:39.968Z,-2.28
2023-02-05T07:42:07.136Z,-2.26
2023-02-05T07:44:34.333Z,-2.30
2023-02-05T07:47:02.258Z,-2.22
2023-02-05T07:49:29.459Z,-2.11
2023-02-05T07:51:56.666Z,-2.08
2023-02-05T07:54:23.887Z,-2.02
2023-02-05T07:56:51.500Z,-2.02
2023-02-05T07:59:18.645Z,-1.92
2023-02-05T08:01:46.943Z,-1.84
2023-02-05T08:04:14.326Z,-1.73
2023-02-05T08:06:42.596Z,-1.67
2023-02-05T08:09:11.301Z,-1.60
2023-02-05T08:11:39.040Z,-1.51
2023-02-05T08:14:06.333Z,-1.47
2023-02-05T08:16:33.564Z,-1.40
2023-02-05T08:19:00.889Z,-1.34
2023-02-05T08:21:28.134Z,-1.26
2023-02-05T08:23:57.342Z,-1.17
2023-02-05T08:26:24.781Z,-1.06
2023-02-05T08:28:52.177Z,-0.96
2023-02-05T08:31:19.944Z,-0.85
2023-02-05T08:33:47.248Z,-0.74
2023-02-05T08:36:14.545Z,-0.65
2023-02-05T08:38:41.982Z,-0.65
2023-02-05T08:41:11.365Z,-0.54
2023-02-05T08:43:44.645Z,-0.50
2023-02-05T08:46:16.796Z,-0.38
2023-02-05T08:48:44.100Z,-0.32
2023-02-05T08:51:13.918Z,-0.26
2023-02-05T08:53:42.036Z,-0.22
2023-02-05T08:56:09.810Z,-0.18
2023-02-05T08:58:38.840Z,-0.15
2023-02-05T09:01:17.354Z,-0.10
2023-02-05T09:03:45.582Z,-0.07
2023-02-05T09:06:15.891Z,0.00
2023-02-05T09:08:43.549Z,0.10
2023-02-05T09:11:11.296Z,0.15
2023-02-05T09:13:38.608Z,0.24
2023-02-05T09:16:06.051Z,0.26
2023-02-05T09:18:33.253Z,0.28
2023-02-05T09:21:00.548Z,0.32
2023-02-05T09:23:27.882Z,0.35
2023-02-05T09:25:55.289Z,0.43
2023-02-05T09:28:23.775Z,0.53
2023-02-05T09:30:51.489Z,0.65
2023-02-05T09:33:18.935Z,0.71
2023-02-05T09:35:46.261Z,0.75
2023-02-05T09:38:15.461Z,0.84
2023-02-05T09:41:08.498Z,0.86
2023-02-05T09:44:18.420Z,0.87
2023-02-05T09:47:24.177Z,0.92
2023-02-05T09:50:06.216Z,0.92
2023-02-05T09:52:45.557Z,1.09
2023-02-05T09:55:15.317Z,1.19
2023-02-05T09:57:43.330Z,1.28
2023-02-05T10:00:45.146Z,1.40
2023-02-05T10:03:34.602Z,1.51
2023-02-05T10:06:31.434Z,1.60
2023-02-05T10:09:18.855Z,1.69
2023-02-05T10:12:05.428Z,1.78
2023-02-05T10:14:58.641Z,1.87
2023-02-05T10:18:23.002Z,1.92
2023-02-05T10:21:12.053Z,1.92
2023-02-05T10:23:56.102Z,1.94
2023-02-05T10:26:44.058Z,1.94
2023-02-05T10:29:22.248Z,1.94
2023-02-05T10:32:13.354Z,1.94
2023-02-05T10:35:09.859Z,2.02
2023-02-05T10:37:52.920Z,2.10
2023-02-05T10:40:37.750Z,2.20
2023-02-05T10:43:30.349Z,2.22
2023-02-05T10:45:59.912Z,2.26
2023-02-05T10:48:47.035Z,2.35
2023-02-05T11:03:23.583Z,2.64
2023-02-05T11:05:51.945Z,2.75
2023-02-05T11:08:41.559Z,2.80
2023-02-05T11:11:29.648Z,2.78
2023-02-05T11:14:04.595Z,2.78
2023-02-05T11:16:45.722Z,2.82
2023-02-05T11:19:25.977Z,2.83
2023-02-05T11:21:59.552Z,2.88
2023-02-05T11:24:37.977Z,2.89
2023-02-05T11:27:27.593Z,2.95
2023-02-05T11:38:48.290Z,3.02
2023-02-05T11:41:33.289Z,3.12
2023-02-05T11:44:08.060Z,3.23
2023-02-05T11:47:04.866Z,3.39
2023-02-05T11:49:52.342Z,3.51
2023-02-05T11:53:24.155Z,3.72
2023-02-05T11:57:25.713Z,4.10
2023-02-05T12:00:22.671Z,5.15
2023-02-05T12:02:50.843Z,6.63
2023-02-05T12:05:27.073Z,8.23
2023-02-05T12:08:30.751Z,9.95
2023-02-05T12:11:19.630Z,11.42
2023-02-05T12:17:47.237Z,13.81
2023-02-05T12:20:41.189Z,14.57
2023-02-05T12:23:30.238Z,15.20
2023-02-05T12:26:16.257Z,15.66
2023-02-05T12:29:12.828Z,16.12
2023-02-05T12:39:54.634Z,16.62
2023-02-05T12:42:40.785Z,16.48
2023-02-05T12:45:29.585Z,15.83
2023-02-05T12:48:16.077Z,15.63
2023-02-05T12:51:29.985Z,15.67
2023-02-05T12:54:52.214Z,15.56
2023-02-05T12:57:32.218Z,15.23
2023-02-05T13:04:22.914Z,14.90
2023-02-05T13:07:08.441Z,14.44
2023-02-05T13:13:54.642Z,12.00
2023-02-05T13:16:31.158Z,11.34
2023-02-05T13:19:28.148Z,10.56
2023-02-05T13:22:00.476Z,9.79
2023-02-05T13:24:52.740Z,9.15
2023-02-05T13:31:45.219Z,7.87
2023-02-05T13:34:16.672Z,7.39
2023-02-05T13:37:16.027Z,6.94
2023-02-05T13:40:39.547Z,6.62
2023-02-05T13:44:06.938Z,6.24
2023-02-05T13:47:11.903Z,6.05
2023-02-05T13:54:57.848Z,5.78
2023-02-05T13:58:11.674Z,5.47
2023-02-05T14:05:52.842Z,5.32
2023-02-05T14:20:25.133Z,5.11
2023-02-05T14:22:57.904Z,5.20
2023-02-05T14:30:51.902Z,4.88
2023-02-05T14:34:34.834Z,4.81
2023-02-05T14:41:24.315Z,4.81
2023-02-05T14:51:24.237Z,4.74
2023-02-05T14:57:47.987Z,4.49
2023-02-05T15:04:53.497Z,4.26
2023-02-05T15:15:31.646Z,4.10
2023-02-05T15:21:52.737Z,4.05
2023-02-05T15:36:54.687Z,3.83
2023-02-05T15:40:16.497Z,3.79
2023-02-05T15:46:16.256Z,3.49
2023-02-05T15:48:44.785Z,3.50
2023-02-05T16:03:15.638Z,3.33
2023-02-05T16:06:38.914Z,3.33
2023-02-05T16:09:37.407Z,3.18
2023-02-05T16:16:17.828Z,3.04
2023-02-05T16:19:01.455Z,2.93
2023-02-05T16:21:43.559Z,3.03
2023-02-05T16:24:32.506Z,3.08
2023-02-05T16:27:21.106Z,3.06
2023-02-05T16:29:58.913Z,3.02
2023-02-05T16:32:54.002Z,2.94
2023-02-05T16:35:32.553Z,2.81
2023-02-05T16:38:01.979Z,2.82
2023-02-05T16:40:38.834Z,2.69
2023-02-05T16:43:27.486Z,2.62
2023-02-05T16:46:07.907Z,2.51
2023-02-05T16:48:49.695Z,2.42
2023-02-05T16:51:54.073Z,2.39
2023-02-05T16:54:34.198Z,2.35
2023-02-05T16:57:23.597Z,2.31
2023-02-05T17:00:06.411Z,2.26
2023-02-05T17:02:39.475Z,2.19
2023-02-05T17:05:25.852Z,2.10
2023-02-05T17:08:06.984Z,2.06
2023-02-05T17:10:53.701Z,2.01
2023-02-05T17:13:37.750Z,1.92
2023-02-05T17:16:24.747Z,1.85
2023-02-05T17:19:06.754Z,1.81
2023-02-05T17:21:37.121Z,1.77
2023-02-05T17:24:04.900Z,1.70
2023-02-05T17:26:40.037Z,1.65
2023-02-05T17:29:15.837Z,1.62
2023-02-05T17:31:43.327Z,1.54
2023-02-05T17:34:11.865Z,1.49
2023-02-05T17:36:39.258Z,1.42
2023-02-05T17:39:06.933Z,1.37
2023-02-05T17:41:37.751Z,1.30
2023-02-05T17:44:06.492Z,1.29
2023-02-05T17:47:03.021Z,1.21
2023-02-05T17:49:31.166Z,1.15
2023-02-05T17:51:58.762Z,1.16
2023-02-05T17:54:26.677Z,1.18
2023-02-05T17:56:58.596Z,1.14
2023-02-05T17:59:26.483Z,1.04
2023-02-05T18:01:56.759Z,0.97
2023-02-05T18:04:24.117Z,0.96
2023-02-05T18:06:52.198Z,0.89
2023-02-05T18:09:19.481Z,0.85
2023-02-05T18:11:47.737Z,0.75
2023-02-05T18:14:15.197Z,0.68
2023-02-05T18:16:42.930Z,0.62
2023-02-05T18:19:10.616Z,0.56
2023-02-05T18:21:39.210Z,0.54
2023-02-05T18:24:10.708Z,0.48
2023-02-05T18:26:41.014Z,0.43
2023-02-05T18:29:13.395Z,0.39
2023-02-05T18:31:42.401Z,0.31
2023-02-05T18:34:09.646Z,0.31
2023-02-05T18:36:37.212Z,0.26
2023-02-05T18:39:07.351Z,0.20
2023-02-05T18:41:37.828Z,0.15
2023-02-05T18:44:05.870Z,0.09
2023-02-05T18:46:33.309Z,0.08
2023-02-05T18:49:05.177Z,0.12
2023-02-05T18:51:32.642Z,0.12
2023-02-05T18:53:59.915Z,0.11
2023-02-05T18:56:28.424Z,0.06
2023-02-05T18:58:59.380Z,-0.05
2023-02-05T19:01:29.121Z,-0.12
2023-02-05T19:04:01.982Z,-0.19
2023-02-05T19:06:29.300Z,-0.24
2023-02-05T19:08:58.901Z,-0.25
2023-02-05T19:11:28.349Z,-0.27
2023-02-05T19:14:02.592Z,-0.29
2023-02-05T19:16:33.805Z,-0.31
2023-02-05T19:19:02.507Z,-0.41
2023-02-05T19:21:30.383Z,-0.55
2023-02-05T19:24:00.302Z,-0.67
2023-02-05T19:26:29.597Z,-0.70
2023-02-05T19:29:04.547Z,-0.79
2023-02-05T19:31:37.186Z,-0.80
2023-02-05T19:34:05.415Z,-0.83
2023-02-05T19:36:33.756Z,-0.82
2023-02-05T19:39:04.497Z,-0.86
2023-02-05T19:41:34.480Z,-0.91
2023-02-05T19:44:05.910Z,-0.98
2023-02-05T19:46:40.784Z,-1.02
2023-02-05T19:49:14.933Z,-1.03
2023-02-05T19:51:50.517Z,-1.03
2023-02-05T19:54:21.907Z,-1.11
2023-02-05T19:56:49.907Z,-1.14
2023-02-05T19:59:17.664Z,-1.14
2023-02-05T20:01:45.933Z,-1.19
2023-02-05T20:04:23.752Z,-1.20
2023-02-05T20:06:59.233Z,-1.23
2023-02-05T20:09:28.333Z,-1.22
2023-02-05T20:11:55.862Z,-1.25
2023-02-05T20:14:24.215Z,-1.33
2023-02-05T20:16:53.139Z,-1.37
2023-02-05T20:19:21.095Z,-1.40
2023-02-05T20:21:49.077Z,-1.42
2023-02-05T20:24:16.830Z,-1.42
2023-02-05T20:26:46.632Z,-1.37
2023-02-05T20:29:14.112Z,-1.37
2023-02-05T20:31:48.983Z,-1.42
2023-02-05T20:34:20.280Z,-1.50
2023-02-05T20:36:56.465Z,-1.58
2023-02-05T20:39:27.188Z,-1.66
2023-02-05T20:41:56.694Z,-1.71
2023-02-05T20:44:27.533Z,-1.80
2023-02-05T20:46:55.693Z,-1.85
2023-02-05T20:49:23.155Z,-1.92
2023-02-05T20:51:50.590Z,-1.91
2023-02-05T20:54:18.007Z,-1.93
2023-02-05T20:56:45.466Z,-1.89
2023-02-05T20:59:13.019Z,-1.88
2023-02-05T21:01:41.023Z,-1.90
2023-02-05T21:04:10.066Z,-2.00
2023-02-05T21:06:40.434Z,-2.20
2023-02-05T21:09:09.994Z,-2.18
2023-02-05T21:11:38.745Z,-2.11
2023-02-05T21:14:07.125Z,-2.13
2023-02-05T21:16:36.123Z,-2.16
2023-02-05T21:19:07.086Z,-2.19
2023-02-05T21:21:36.938Z,-2.18
2023-02-05T21:24:13.863Z,-2.18
2023-02-05T21:26:44.991Z,-2.19
2023-02-05T21:29:16.339Z,-2.24
2023-02-05T21:31:51.905Z,-2.26
2023-02-05T21:34:22.935Z,-2.31
2023-02-05T21:36:51.523Z,-2.35
2023-02-05T21:39:19.434Z,-2.39
2023-02-05T21:41:47.554Z,-2.43
2023-02-05T21:44:15.027Z,-2.42
2023-02-05T21:46:42.849Z,-2.46
2023-02-05T21:49:11.825Z,-2.51
2023-02-05T21:51:39.242Z,-2.56
2023-02-05T21:54:06.916Z,-2.54
2023-02-05T21:56:39.353Z,-2.57
2023-02-05T21:59:07.096Z,-2.56
2023-02-05T22:01:36.769Z,-2.57
2023-02-05T22:04:15.707Z,-2.61
2023-02-05T22:06:44.166Z,-2.59
2023-02-05T22:09:15.655Z,-2.56
2023-02-05T22:11:44.351Z,-2.60
2023-02-05T22:14:11.970Z,-2.63
2023-02-05T22:16:40.073Z,-2.62
2023-02-05T22:19:07.932Z,-2.62
2023-02-05T22:21:40.592Z,-2.60
2023-02-05T22:24:13.812Z,-2.62
2023-02-05T22:26:43.190Z,-2.65
2023-02-05T22:29:15.001Z,-2.63
2023-02-05T22:31:49.269Z,-2.71
2023-02-05T22:34:17.606Z,-2.78
2023-02-05T22:36:47.071Z,-2.80
2023-02-05T22:39:14.304Z,-2.73
2023-02-05T22:41:43.397Z,-2.72
2023-02-05T22:44:12.858Z,-2.74
2023-02-05T22:46:43.851Z,-2.81
2023-02-05T22:49:13.661Z,-2.82
2023-02-05T22:51:42.184Z,-2.83
2023-02-05T22:54:14.668Z,-2.88
2023-02-05T22:56:42.377Z,-2.99
2023-02-05T22:59:09.914Z,-2.95
2023-02-05T23:01:38.818Z,-2.94
2023-02-05T23:04:09.026Z,-2.88
2023-02-05T23:06:43.093Z,-2.88
2023-02-05T23:09:17.810Z,-2.86
2023-02-05T23:11:46.485Z,-2.86
2023-02-05T23:14:16.853Z,-2.80
2023-02-05T23:16:47.153Z,-2.84
2023-02-05T23:19:19.749Z,-2.88
2023-02-05T23:21:48.020Z,-2.90
2023-02-05T23:24:16.057Z,-2.89
2023-02-05T23:26:48.009Z,-2.91
2023-02-05T23:29:16.973Z,-2.94
2023-02-05T23:31:44.590Z,-2.99
2023-02-05T23:34:13.494Z,-3.00
2023-02-05T23:36:40.758Z,-2.98
2023-02-05T23:39:08.558Z,-2.95
2023-02-05T23:41:36.385Z,-2.91
2023-02-05T23:44:17.786Z,-2.97
2023-02-05T23:46:47.118Z,-3.03
2023-02-05T23:49:15.407Z,-3.11
2023-02-05T23:51:43.244Z,-3.10
2023-02-05T23:54:12.104Z,-3.11
2023-02-05T23:56:40.499Z,-3.11
2023-02-05T23:59:11.509Z,-3.08
